createdAt,value
2023-02-08T02:42:23.445Z,6.78
2023-02-08T02:57:27.966Z,6.78
2023-02-08T03:12:37.344Z,6.76
2023-02-08T03:27:51.868Z,6.74
2023-02-08T03:42:56.435Z,6.75
2023-02-08T06:59:13.165Z,7.01
2023-02-08T07:14:15.072Z,7.10
2023-02-08T07:29:16.659Z,7.26
2023-02-08T07:44:18.523Z,7.33
2023-02-08T07:59:20.118Z,7.35
2023-02-08T08:14:21.827Z,7.35
2023-02-08T08:29:23.739Z,7.38
2023-02-08T08:44:25.458Z,7.43
2023-02-08T08:59:27.046Z,7.43
2023-02-08T09:14:28.496Z,7.48
2023-02-08T09:29:30.322Z,7.46
2023-02-08T09:44:50.649Z,7.45
2023-02-08T10:00:12.400Z,7.45
2023-02-08T10:15:19.953Z,7.46
2023-02-08T10:30:37.122Z,7.47
2023-02-08T10:45:46.064Z,7.45
2023-02-08T11:00:49.574Z,7.52
2023-02-08T11:15:52.998Z,7.55
2023-02-08T11:31:07.130Z,7.56
2023-02-08T11:46:13.462Z,7.52
2023-02-08T12:01:20.434Z,7.45
2023-02-08T12:16:40.918Z,7.40
2023-02-08T12:32:21.245Z,7.29
2023-02-08T12:47:28.925Z,7.27
2023-02-08T13:02:33.344Z,7.22
2023-02-08T13:17:51.693Z,7.21
2023-02-08T13:32:54.002Z,7.11
2023-02-08T13:48:00.861Z,7.06
2023-02-08T14:03:02.490Z,7.00
2023-02-08T14:18:04.642Z,6.91
2023-02-08T14:33:07.512Z,6.94
2023-02-08T14:48:23.637Z,7.02
2023-02-08T15:03:26.803Z,6.86
2023-02-08T15:18:30.614Z,6.94
2023-02-08T15:33:32.563Z,6.73
2023-02-08T15:48:36.168Z,6.80
2023-02-08T16:03:38.810Z,6.83
2023-02-08T16:18:46.148Z,6.84
2023-02-08T16:33:56.311Z,6.87
2023-02-08T16:48:57.974Z,6.81
2023-02-08T17:03:59.739Z,6.71
2023-02-08T17:19:01.623Z,6.54
2023-02-08T17:34:06.212Z,6.57
2023-02-08T17:49:07.847Z,6.60
2023-02-08T18:04:11.266Z,6.63
2023-02-08T18:19:12.793Z,6.55
2023-02-08T18:34:16.261Z,6.54
2023-02-08T18:49:17.901Z,6.54
2023-02-08T19:04:19.488Z,6.56
2023-02-08T19:19:21.028Z,6.52
2023-02-08T19:34:22.547Z,6.50
2023-02-08T19:49:26.018Z,6.45
2023-02-08T20:04:27.723Z,6.43
2023-02-08T20:19:29.653Z,6.45
2023-02-08T20:34:31.223Z,6.47
2023-02-08T20:49:32.805Z,6.40
2023-02-08T21:04:34.901Z,6.34
2023-02-08T21:19:37.484Z,6.40
2023-02-08T21:34:38.970Z,6.42
2023-02-08T21:49:59.121Z,6.39
2023-02-08T22:05:44.548Z,6.37
2023-02-08T22:20:46.386Z,6.37
2023-02-08T22:35:48.149Z,6.31
2023-02-08T22:50:49.741Z,6.38
2023-02-08T23:05:51.781Z,6.30
2023-02-08T23:20:54.571Z,6.31
2023-02-08T23:35:56.169Z,6.29
2023-02-08T23:51:00.758Z,6.25
